Time;durP1;ratioP1;P1;durP2;ratioP2;P2;SDS_P1;SDS_P2;PMS_P1;PMS_P2;Temp;Humidity;BMP_temperature;BMP_pressure;BME280_temperature;BME280_humidity;BME280_pressure;Samples;Min_cycle;Max_cycle;Signal;HPM_P1;HPM_P2
2023/06/13 00:02:28;;;;;;;4.37;1.63;;;11.00;99.90;;;;;;5052183;28;20218;-79
2023/06/13 00:04:56;;;;;;;2.70;1.80;;;10.90;99.90;;;;;;5035640;28;20312;-82
2023/06/13 00:07:23;;;;;;;2.57;1.70;;;10.90;99.90;;;;;;5035691;28;20674;-81
2023/06/13 00:09:50;;;;;;;2.20;1.30;;;10.90;99.90;;;;;;5040628;28;20218;-81
2023/06/13 00:12:20;;;;;;;2.13;1.60;;;10.80;99.90;;;;;;5093374;28;20189;-81
2023/06/13 00:14:50;;;;;;;2.37;1.70;;;10.90;99.90;;;;;;5094916;28;20228;-81
2023/06/13 00:17:18;;;;;;;2.67;1.57;;;10.80;99.90;;;;;;5094178;28;20604;-81
2023/06/13 00:19:45;;;;;;;2.07;1.73;;;10.80;99.90;;;;;;5076996;28;20252;-82
2023/06/13 00:22:14;;;;;;;2.10;1.70;;;10.70;99.90;;;;;;5076986;28;20610;-82
2023/06/13 00:24:41;;;;;;;3.43;1.80;;;10.70;99.90;;;;;;5094067;28;20221;-82
2023/06/13 00:27:08;;;;;;;3.90;2.40;;;10.70;99.90;;;;;;5093876;28;20643;-80
2023/06/13 00:29:35;;;;;;;2.90;2.00;;;10.70;99.90;;;;;;5095074;28;20201;-81
2023/06/13 00:32:02;;;;;;;2.30;1.70;;;10.60;99.90;;;;;;5093160;28;20259;-81
2023/06/13 00:34:30;;;;;;;3.37;1.87;;;10.70;99.90;;;;;;5093072;28;20255;-82
2023/06/13 00:36:57;;;;;;;2.33;1.80;;;10.60;99.90;;;;;;5076261;28;20214;-81
2023/06/13 00:39:24;;;;;;;2.30;1.77;;;10.60;99.90;;;;;;5092960;28;20648;-82
2023/06/13 00:41:51;;;;;;;2.90;2.00;;;10.60;99.90;;;;;;5093384;28;20262;-81
2023/06/13 00:44:18;;;;;;;2.27;1.80;;;10.70;99.90;;;;;;5093455;28;20328;-82
2023/06/13 00:46:45;;;;;;;3.37;2.10;;;10.60;99.90;;;;;;5076330;28;20193;-80
2023/06/13 00:49:16;;;;;;;2.73;2.00;;;10.60;99.90;;;;;;5076303;28;20226;-81
2023/06/13 00:51:44;;;;;;;6.13;2.13;;;10.60;99.90;;;;;;5094868;28;20185;-81
2023/06/13 00:54:13;;;;;;;4.47;2.00;;;10.60;99.90;;;;;;5076736;28;20197;-81
2023/06/13 00:56:41;;;;;;;2.67;2.07;;;10.60;99.90;;;;;;5094889;28;20201;-81
2023/06/13 00:59:08;;;;;;;2.47;2.03;;;10.60;99.90;;;;;;5076626;28;20229;-80
2023/06/13 01:01:40;;;;;;;3.10;2.03;;;10.50;99.90;;;;;;5094175;28;20209;-80
2023/06/13 01:04:08;;;;;;;3.33;1.97;;;10.40;99.90;;;;;;5075109;28;20286;-80
2023/06/13 01:06:40;;;;;;;2.70;2.10;;;10.40;99.90;;;;;;5092627;28;20722;-81
2023/06/13 01:09:08;;;;;;;2.23;2.00;;;10.40;99.90;;;;;;5092806;28;20288;-80
2023/06/13 01:11:39;;;;;;;3.53;2.10;;;10.40;99.90;;;;;;5094412;28;20217;-81
2023/06/13 01:14:42;;;;;;;4.47;2.30;;;10.40;99.90;;;;;;5076511;28;20197;-80
2023/06/13 01:17:23;;;;;;;3.27;1.90;;;10.50;99.90;;;;;;5091442;28;20233;-81
2023/06/13 01:19:57;;;;;;;2.87;2.17;;;10.60;99.90;;;;;;5092741;28;20213;-81
2023/06/13 01:22:42;;;;;;;3.77;2.20;;;10.60;99.90;;;;;;5093471;28;20209;-80
2023/06/13 01:25:28;;;;;;;4.80;2.50;;;10.70;99.90;;;;;;5093404;28;20589;-80
2023/06/13 01:27:57;;;;;;;2.90;2.20;;;10.60;99.90;;;;;;5094701;28;20181;-81
2023/06/13 01:30:27;;;;;;;3.47;2.40;;;10.60;99.90;;;;;;5094189;28;20611;-80
2023/06/13 01:32:55;;;;;;;4.00;2.60;;;10.70;99.90;;;;;;5075978;28;20189;-81
2023/06/13 01:35:24;;;;;;;3.97;2.47;;;10.70;99.90;;;;;;5092901;28;20213;-80
2023/06/13 01:37:51;;;;;;;3.80;2.40;;;10.80;99.90;;;;;;5093192;28;20694;-81
2023/06/13 01:40:19;;;;;;;3.20;2.50;;;10.80;99.90;;;;;;5092587;28;20547;-81
2023/06/13 01:42:46;;;;;;;3.40;2.30;;;10.80;99.90;;;;;;5092691;28;20708;-80
2023/06/13 01:45:14;;;;;;;3.70;2.73;;;10.90;99.90;;;;;;5093072;28;20274;-82
2023/06/13 01:48:05;;;;;;;5.03;2.70;;;10.90;99.90;;;;;;5092764;28;20246;-82
2023/06/13 01:50:57;;;;;;;3.77;2.63;;;10.80;99.90;;;;;;5092289;28;20236;-81
2023/06/13 01:53:39;;;;;;;7.07;2.87;;;10.80;99.90;;;;;;5092423;28;20186;-82
2023/06/13 01:56:18;;;;;;;5.47;2.50;;;10.80;99.90;;;;;;5092074;28;20244;-82
2023/06/13 01:58:54;;;;;;;3.73;2.50;;;10.80;99.90;;;;;;5092475;28;20266;-82
2023/06/13 02:01:24;;;;;;;4.43;2.60;;;10.90;99.90;;;;;;5092602;28;20633;-82
2023/06/13 02:03:51;;;;;;;4.80;2.93;;;10.90;99.90;;;;;;5092042;28;20228;-82
2023/06/13 02:06:18;;;;;;;3.37;2.33;;;10.90;99.90;;;;;;5091954;28;20217;-82
2023/06/13 02:08:45;;;;;;;4.43;2.80;;;11.00;99.90;;;;;;5092260;28;20216;-83
2023/06/13 02:11:12;;;;;;;4.20;2.90;;;10.90;99.90;;;;;;5093275;28;20251;-82
2023/06/13 02:13:39;;;;;;;4.57;2.50;;;11.00;99.90;;;;;;5091984;28;20229;-81
2023/06/13 02:16:06;;;;;;;3.83;2.50;;;10.90;99.90;;;;;;5095349;28;20213;-81
2023/06/13 02:18:33;;;;;;;3.93;2.50;;;10.90;99.90;;;;;;5096662;28;20201;-83
2023/06/13 02:21:00;;;;;;;4.63;3.10;;;10.90;99.90;;;;;;5079762;28;20621;-81
2023/06/13 02:23:27;;;;;;;4.30;2.57;;;11.00;99.90;;;;;;5098130;28;20212;-81
2023/06/13 02:25:55;;;;;;;8.07;3.10;;;10.90;99.90;;;;;;5080383;28;20239;-83
2023/06/13 02:28:22;;;;;;;5.47;3.00;;;10.90;99.90;;;;;;5097586;28;20204;-82
2023/06/13 02:30:49;;;;;;;4.00;2.70;;;10.90;99.90;;;;;;5099712;28;20217;-79
2023/06/13 02:33:16;;;;;;;4.33;2.93;;;10.90;99.90;;;;;;5099259;28;20201;-78
2023/06/13 02:35:45;;;;;;;4.20;2.80;;;10.90;99.90;;;;;;5097943;28;20217;-80
2023/06/13 02:38:13;;;;;;;4.93;2.70;;;10.90;99.90;;;;;;5078763;28;20189;-80
2023/06/13 02:40:40;;;;;;;4.43;2.80;;;10.90;99.90;;;;;;5095863;28;20317;-79
2023/06/13 02:43:08;;;;;;;12.57;3.70;;;10.80;99.90;;;;;;5079110;28;20241;-81
2023/06/13 02:45:35;;;;;;;4.33;2.93;;;10.80;99.90;;;;;;5096984;28;20213;-82
2023/06/13 02:48:02;;;;;;;6.57;3.30;;;10.80;99.90;;;;;;5078272;28;20250;-80
2023/06/13 02:50:30;;;;;;;4.40;2.87;;;10.90;99.90;;;;;;5095205;28;20227;-81
2023/06/13 02:52:57;;;;;;;4.17;3.13;;;10.90;99.90;;;;;;5095491;28;20193;-81
2023/06/13 02:55:24;;;;;;;7.10;3.30;;;10.90;99.90;;;;;;5094986;28;20210;-81
2023/06/13 02:57:51;;;;;;;4.93;3.00;;;10.90;99.90;;;;;;5091882;28;20222;-80
2023/06/13 03:00:19;;;;;;;4.27;3.23;;;10.90;99.90;;;;;;5058311;28;20690;-81
2023/06/13 03:02:46;;;;;;;5.57;3.23;;;10.80;99.90;;;;;;5014038;28;20211;-82
2023/06/13 03:05:16;;;;;;;5.30;3.33;;;10.80;99.90;;;;;;4997808;28;20283;-81
2023/06/13 03:07:46;;;;;;;4.20;3.13;;;10.70;99.90;;;;;;4997591;28;20229;-81
2023/06/13 03:10:15;;;;;;;5.03;3.10;;;10.60;99.90;;;;;;4997640;28;20703;-81
2023/06/13 03:12:43;;;;;;;5.40;3.60;;;10.60;99.90;;;;;;4981498;28;20625;-82
2023/06/13 03:15:11;;;;;;;4.63;3.80;;;10.70;99.90;;;;;;4997473;28;20339;-81
2023/06/13 03:17:39;;;;;;;4.93;3.60;;;10.70;99.90;;;;;;4997739;28;20553;-81
2023/06/13 03:20:10;;;;;;;4.97;3.50;;;10.60;99.90;;;;;;5024174;28;20214;-81
2023/06/13 03:22:37;;;;;;;5.57;3.57;;;10.70;99.90;;;;;;5057993;28;20198;-81
2023/06/13 03:25:06;;;;;;;4.60;3.40;;;10.60;99.90;;;;;;5076187;28;20299;-81
2023/06/13 03:27:35;;;;;;;5.67;3.53;;;10.60;99.90;;;;;;5057252;28;20198;-81
2023/06/13 03:30:02;;;;;;;5.37;3.87;;;10.60;99.90;;;;;;5057574;28;20677;-80
2023/06/13 03:32:30;;;;;;;5.67;3.60;;;10.60;99.90;;;;;;5057965;28;20232;-80
2023/06/13 03:34:57;;;;;;;5.97;3.90;;;10.50;99.90;;;;;;4997068;28;20240;-80
2023/06/13 03:37:25;;;;;;;5.13;3.70;;;10.60;99.90;;;;;;4981083;28;20609;-80
2023/06/13 03:39:52;;;;;;;6.47;3.87;;;10.60;99.90;;;;;;4997022;28;20228;-80
2023/06/13 03:42:20;;;;;;;5.70;3.90;;;10.60;99.90;;;;;;4996978;28;20208;-80
2023/06/13 03:44:48;;;;;;;5.30;3.93;;;10.70;99.90;;;;;;4996556;28;20240;-79
2023/06/13 03:47:17;;;;;;;5.07;4.00;;;10.60;99.90;;;;;;4996750;28;20224;-79
2023/06/13 03:49:44;;;;;;;8.90;4.27;;;10.60;99.90;;;;;;5012952;28;20679;-80
2023/06/13 03:52:14;;;;;;;6.23;3.80;;;10.60;99.90;;;;;;5020328;28;20639;-80
2023/06/13 03:54:41;;;;;;;5.50;3.90;;;10.70;99.90;;;;;;5056897;28;20739;-80
2023/06/13 03:57:09;;;;;;;6.17;4.10;;;10.60;99.90;;;;;;5074733;28;20190;-80
2023/06/13 03:59:36;;;;;;;5.87;4.03;;;10.60;99.90;;;;;;5091291;28;20244;-80
2023/06/13 04:02:03;;;;;;;6.37;4.23;;;10.50;99.90;;;;;;5093762;28;20229;-81
2023/06/13 04:04:32;;;;;;;6.80;4.67;;;10.60;99.90;;;;;;5094734;28;20304;-81
2023/06/13 04:07:04;;;;;;;7.80;4.53;;;10.70;99.90;;;;;;5095206;28;20239;-81
2023/06/13 04:09:31;;;;;;;6.00;4.30;;;10.80;99.90;;;;;;5093965;28;20492;-81
2023/06/13 04:11:58;;;;;;;6.20;4.40;;;10.70;99.90;;;;;;5076702;28;20198;-80
2023/06/13 04:14:25;;;;;;;6.73;4.80;;;10.80;99.90;;;;;;5094697;28;20212;-79
2023/06/13 04:16:52;;;;;;;7.87;4.93;;;10.80;99.90;;;;;;5076801;28;20282;-80
2023/06/13 04:19:19;;;;;;;6.47;4.73;;;10.80;99.90;;;;;;5093132;28;20641;-81
2023/06/13 04:21:47;;;;;;;5.33;4.33;;;10.70;99.90;;;;;;5093190;28;20684;-81
2023/06/13 04:24:14;;;;;;;7.40;4.93;;;10.60;99.90;;;;;;5093429;28;20221;-80
2023/06/13 04:26:41;;;;;;;7.03;4.83;;;10.60;99.90;;;;;;5094487;28;20192;-81
2023/06/13 04:29:09;;;;;;;6.33;4.60;;;10.60;99.90;;;;;;5093816;28;20254;-80
2023/06/13 04:31:37;;;;;;;8.57;4.93;;;10.50;99.90;;;;;;5093404;28;20244;-82
2023/06/13 04:34:05;;;;;;;11.03;5.77;;;10.50;99.90;;;;;;5093152;28;20718;-80
2023/06/13 04:36:33;;;;;;;20.83;5.97;;;10.50;99.90;;;;;;5076159;28;20221;-79
2023/06/13 04:39:01;;;;;;;13.13;5.63;;;10.50;99.90;;;;;;5092465;28;20235;-80
2023/06/13 04:41:33;;;;;;;11.80;5.57;;;10.60;99.90;;;;;;5075750;28;20225;-80
2023/06/13 04:44:10;;;;;;;6.97;5.07;;;10.60;99.90;;;;;;5092986;28;20253;-79
2023/06/13 04:46:43;;;;;;;11.67;5.60;;;10.70;99.90;;;;;;5076257;28;20311;-79
2023/06/13 04:49:11;;;;;;;8.30;5.40;;;10.60;99.90;;;;;;5092829;28;20284;-80
2023/06/13 04:51:40;;;;;;;7.20;5.20;;;10.70;99.90;;;;;;5092544;28;20644;-80
2023/06/13 04:54:09;;;;;;;8.50;5.03;;;10.70;99.90;;;;;;5075864;28;20266;-80
2023/06/13 04:56:37;;;;;;;7.20;5.30;;;10.80;99.90;;;;;;5093637;28;20311;-81
2023/06/13 04:59:08;;;;;;;7.33;5.70;;;10.80;99.90;;;;;;5076238;28;20260;-81
2023/06/13 05:01:37;;;;;;;10.60;5.50;;;10.80;99.90;;;;;;5092839;28;20209;-80
2023/06/13 05:04:05;;;;;;;8.27;5.70;;;10.80;99.90;;;;;;5092534;28;20248;-80
2023/06/13 05:06:37;;;;;;;11.87;6.40;;;10.80;99.90;;;;;;5075884;28;20720;-82
2023/06/13 05:09:08;;;;;;;7.97;5.63;;;10.80;99.90;;;;;;5092588;28;20651;-83
2023/06/13 05:11:35;;;;;;;7.70;5.77;;;10.80;99.90;;;;;;5092061;28;20224;-81
2023/06/13 05:14:02;;;;;;;10.40;5.73;;;10.80;99.90;;;;;;5092058;28;20197;-81
2023/06/13 05:16:29;;;;;;;7.73;5.63;;;10.80;99.90;;;;;;5078114;28;20258;-79
2023/06/13 05:18:57;;;;;;;8.40;5.77;;;10.90;99.90;;;;;;5079758;28;20363;-81
2023/06/13 05:21:25;;;;;;;7.70;5.40;;;10.90;99.90;;;;;;5091840;28;20213;-81
2023/06/13 05:23:52;;;;;;;7.83;5.57;;;10.90;99.90;;;;;;5092364;28;20669;-82
2023/06/13 05:26:20;;;;;;;8.70;5.73;;;11.00;99.90;;;;;;5075465;28;20266;-78
2023/06/13 05:28:47;;;;;;;7.63;5.87;;;10.80;99.90;;;;;;5092407;28;20211;-79
2023/06/13 05:31:14;;;;;;;9.40;6.00;;;10.80;99.90;;;;;;5092074;28;20237;-79
2023/06/13 05:33:41;;;;;;;9.13;6.20;;;10.80;99.90;;;;;;5093257;28;20185;-80
2023/06/13 05:36:09;;;;;;;8.40;6.13;;;10.80;99.90;;;;;;5092138;28;20773;-81
2023/06/13 05:38:36;;;;;;;9.03;6.40;;;10.90;99.90;;;;;;5093645;28;20243;-80
2023/06/13 05:41:05;;;;;;;9.33;6.43;;;11.00;99.90;;;;;;5092223;28;20689;-80
2023/06/13 05:43:33;;;;;;;9.67;6.07;;;10.90;99.90;;;;;;5075935;28;20292;-81
2023/06/13 05:46:01;;;;;;;8.10;5.97;;;10.90;99.90;;;;;;5092137;28;20245;-81
2023/06/13 05:48:28;;;;;;;8.07;6.07;;;10.90;99.90;;;;;;5092773;28;20212;-81
2023/06/13 05:50:55;;;;;;;8.83;6.43;;;10.90;99.90;;;;;;5093525;28;20236;-81
2023/06/13 05:53:23;;;;;;;9.20;5.80;;;11.00;99.90;;;;;;5092977;28;20243;-81
2023/06/13 05:55:53;;;;;;;8.60;6.03;;;11.00;99.90;;;;;;5094716;28;20612;-83
2023/06/13 05:58:20;;;;;;;8.30;6.00;;;11.00;99.90;;;;;;5076860;28;20278;-82
2023/06/13 06:00:52;;;;;;;9.57;6.60;;;11.00;99.90;;;;;;5093109;28;20626;-83
2023/06/13 06:03:20;;;;;;;10.60;6.00;;;11.10;99.90;;;;;;5075080;28;20637;-82
2023/06/13 06:05:48;;;;;;;7.77;6.03;;;11.00;99.90;;;;;;5091432;28;20316;-80
2023/06/13 06:08:15;;;;;;;10.63;6.40;;;11.10;99.90;;;;;;5091227;28;20231;-79
2023/06/13 06:10:42;;;;;;;10.57;6.63;;;11.10;99.90;;;;;;5091332;28;20249;-77
2023/06/13 06:13:09;;;;;;;9.63;6.67;;;11.10;99.90;;;;;;5091032;28;20209;-78
2023/06/13 06:15:36;;;;;;;11.20;7.30;;;11.10;99.90;;;;;;5092682;28;20577;-77
2023/06/13 06:18:03;;;;;;;9.60;6.67;;;11.10;99.90;;;;;;5091590;28;20201;-79
2023/06/13 06:20:30;;;;;;;7.97;6.27;;;11.10;99.90;;;;;;5075567;28;20209;-79
2023/06/13 06:22:57;;;;;;;11.47;6.83;;;11.10;99.90;;;;;;5091407;28;20289;-78
2023/06/13 06:25:24;;;;;;;10.27;7.23;;;11.20;99.90;;;;;;5091727;28;20225;-79
2023/06/13 06:27:54;;;;;;;9.30;7.10;;;11.20;99.90;;;;;;5075604;28;20226;-79
2023/06/13 06:30:22;;;;;;;12.10;7.63;;;11.20;99.90;;;;;;5094113;28;20210;-81
2023/06/13 06:32:49;;;;;;;10.20;7.77;;;11.20;99.90;;;;;;5075305;28;20228;-80
2023/06/13 06:35:17;;;;;;;10.57;7.40;;;11.30;99.90;;;;;;5075119;28;20543;-80
2023/06/13 06:37:44;;;;;;;11.97;8.07;;;11.30;99.90;;;;;;5075875;28;20201;-80
2023/06/13 06:40:11;;;;;;;12.47;7.43;;;11.30;99.90;;;;;;5094660;28;20213;-82
2023/06/13 06:42:39;;;;;;;11.43;7.63;;;11.40;99.90;;;;;;5076794;28;20193;-81
2023/06/13 06:45:09;;;;;;;11.10;7.70;;;11.50;99.90;;;;;;5093783;28;20222;-81
2023/06/13 06:47:37;;;;;;;12.50;8.20;;;11.40;99.90;;;;;;5093257;28;20170;-80
2023/06/13 06:50:04;;;;;;;11.13;7.97;;;11.40;99.90;;;;;;5093932;28;20224;-78
2023/06/13 06:52:32;;;;;;;10.90;7.67;;;11.50;99.90;;;;;;5035170;28;20293;-78
2023/06/13 06:54:59;;;;;;;12.38;9.13;;;11.60;99.90;;;;;;5033391;28;20527;-79
2023/06/13 06:57:26;;;;;;;10.17;7.23;;;11.60;99.90;;;;;;5049708;28;20195;-77
2023/06/13 06:59:53;;;;;;;10.20;7.30;;;11.50;99.90;;;;;;5049594;28;20230;-76
2023/06/13 07:02:21;;;;;;;12.97;7.37;;;11.50;99.90;;;;;;5034305;28;20203;-78
2023/06/13 07:04:48;;;;;;;10.97;7.37;;;11.50;99.90;;;;;;5036570;28;20321;-79
2023/06/13 07:07:15;;;;;;;12.18;9.00;;;11.50;99.90;;;;;;5053707;28;20517;-78
2023/06/13 07:09:42;;;;;;;11.30;7.50;;;11.60;99.90;;;;;;5042343;28;20242;-77
2023/06/13 07:12:09;;;;;;;11.83;8.00;;;11.60;99.90;;;;;;5094432;28;20190;-80
2023/06/13 07:14:36;;;;;;;11.25;8.25;;;11.70;99.90;;;;;;5096632;28;20425;-75
2023/06/13 07:17:04;;;;;;;10.87;7.53;;;11.70;99.90;;;;;;5099072;28;20205;-82
2023/06/13 07:19:31;;;;;;;9.23;7.17;;;11.70;99.90;;;;;;5081441;28;20785;-76
2023/06/13 07:22:00;;;;;;;12.17;8.20;;;11.70;99.90;;;;;;5096188;28;20426;-75
2023/06/13 07:24:34;;;;;;;11.23;7.10;;;11.80;99.90;;;;;;5031632;28;20682;-73
2023/06/13 07:27:01;;;;;;;11.53;6.93;;;11.90;99.90;;;;;;5015488;28;20199;-74
2023/06/13 07:29:28;;;;;;;9.77;6.67;;;11.80;99.90;;;;;;5015288;28;20195;-73
2023/06/13 07:31:55;;;;;;;10.07;7.20;;;11.90;99.90;;;;;;5031873;28;20192;-73
2023/06/13 07:34:22;;;;;;;10.00;6.90;;;11.90;99.90;;;;;;5015356;28;20541;-73
2023/06/13 07:36:53;;;;;;;10.90;6.90;;;11.90;99.90;;;;;;5031730;28;20838;-75
2023/06/13 07:39:20;;;;;;;9.50;7.17;;;12.00;99.90;;;;;;5015459;28;20242;-75
2023/06/13 07:41:49;;;;;;;11.83;7.10;;;11.90;99.90;;;;;;5023606;28;20584;-74
2023/06/13 07:44:17;;;;;;;12.13;8.13;;;12.00;99.90;;;;;;5093152;28;20190;-74
2023/06/13 07:46:44;;;;;;;10.53;7.33;;;12.10;99.90;;;;;;5093444;28;20189;-74
2023/06/13 07:49:11;;;;;;;9.23;7.00;;;12.10;99.90;;;;;;5094736;28;20186;-74
2023/06/13 07:51:39;;;;;;;9.57;7.30;;;12.20;99.90;;;;;;5076893;28;20259;-74
2023/06/13 07:54:06;;;;;;;12.27;8.17;;;12.10;99.90;;;;;;5094343;28;20186;-74
2023/06/13 07:56:33;;;;;;;13.37;7.40;;;12.20;99.90;;;;;;5076345;28;20218;-73
2023/06/13 07:59:00;;;;;;;10.33;7.37;;;12.20;99.90;;;;;;5092531;28;20229;-74
2023/06/13 08:01:27;;;;;;;10.73;8.00;;;12.20;99.90;;;;;;5093723;28;20201;-74
2023/06/13 08:03:54;;;;;;;11.27;7.53;;;12.30;99.90;;;;;;5092558;28;20208;-73
2023/06/13 08:06:22;;;;;;;12.17;7.23;;;12.30;99.90;;;;;;5093346;28;20234;-77
2023/06/13 08:08:49;;;;;;;9.70;7.37;;;12.40;99.90;;;;;;5093297;28;20294;-82
2023/06/13 08:11:16;;;;;;;9.90;6.93;;;12.20;99.90;;;;;;5094351;28;20275;-75
2023/06/13 08:13:43;;;;;;;10.90;6.80;;;12.20;99.90;;;;;;5094024;28;20186;-76
2023/06/13 08:16:11;;;;;;;8.17;6.27;;;12.30;99.90;;;;;;5093035;28;20673;-75
2023/06/13 08:18:38;;;;;;;8.30;6.67;;;12.30;99.90;;;;;;5034853;28;20213;-76
2023/06/13 08:21:08;;;;;;;8.63;6.50;;;12.30;99.90;;;;;;5034922;28;20298;-74
2023/06/13 08:23:35;;;;;;;10.10;6.57;;;12.40;99.90;;;;;;5051512;28;20210;-75
2023/06/13 08:26:02;;;;;;;8.23;5.97;;;12.50;99.90;;;;;;5034436;28;20697;-75
2023/06/13 08:28:30;;;;;;;8.90;6.20;;;12.50;99.90;;;;;;5034590;28;20195;-75
2023/06/13 08:30:56;;;;;;;8.93;6.23;;;12.70;99.90;;;;;;5034208;28;20247;-75
2023/06/13 08:33:43;;;;;;;7.47;5.90;;;12.80;99.90;;;;;;5034505;28;20202;-76
2023/06/13 08:36:30;;;;;;;8.33;5.70;;;12.90;99.90;;;;;;5054218;28;20229;-74
2023/06/13 08:38:59;;;;;;;7.40;5.50;;;13.00;99.90;;;;;;5091751;28;20281;-74
2023/06/13 08:41:28;;;;;;;8.10;5.60;;;13.10;99.90;;;;;;5093053;28;20288;-75
2023/06/13 08:43:58;;;;;;;6.17;5.20;;;13.20;99.90;;;;;;5092213;28;20653;-75
2023/06/13 08:46:28;;;;;;;5.93;5.10;;;13.20;99.90;;;;;;5092086;28;20229;-76
2023/06/13 08:48:55;;;;;;;6.63;5.10;;;13.20;99.90;;;;;;5093897;28;20193;-76
2023/06/13 08:51:23;;;;;;;8.53;6.03;;;13.10;99.90;;;;;;5093372;28;20225;-75
2023/06/13 08:53:56;;;;;;;11.57;6.23;;;13.20;99.90;;;;;;5075522;28;20292;-76
2023/06/13 08:56:25;;;;;;;9.07;6.50;;;13.20;99.90;;;;;;5092091;28;20230;-76
2023/06/13 08:59:26;;;;;;;7.73;5.80;;;13.20;99.90;;;;;;5080426;28;20222;-76
2023/06/13 09:01:56;;;;;;;6.30;5.10;;;13.20;99.90;;;;;;4975443;28;20221;-76
2023/06/13 09:04:27;;;;;;;7.27;4.70;;;13.20;99.90;;;;;;4991263;28;20332;-76
2023/06/13 09:06:58;;;;;;;6.60;5.00;;;13.20;99.90;;;;;;4975369;28;20197;-76
2023/06/13 09:09:26;;;;;;;6.40;5.00;;;13.30;99.90;;;;;;4975007;28;20251;-76
2023/06/13 09:11:55;;;;;;;6.13;5.03;;;13.40;99.90;;;;;;4990897;28;20562;-75
2023/06/13 09:14:22;;;;;;;7.10;5.17;;;13.40;99.90;;;;;;4974984;28;20204;-74
2023/06/13 09:16:52;;;;;;;6.60;4.53;;;13.50;99.90;;;;;;4991147;28;20259;-77
2023/06/13 09:19:21;;;;;;;8.60;4.90;;;13.60;99.90;;;;;;4974757;28;20207;-77
2023/06/13 09:21:48;;;;;;;6.87;5.00;;;13.80;99.90;;;;;;4991388;28;20203;-75
2023/06/13 09:24:15;;;;;;;6.20;4.90;;;13.90;99.90;;;;;;4990594;28;20232;-76
2023/06/13 09:26:45;;;;;;;6.50;5.17;;;14.00;99.90;;;;;;4975028;28;20224;-76
2023/06/13 09:29:13;;;;;;;6.33;4.97;;;14.00;99.90;;;;;;4974688;28;20305;-75
2023/06/13 09:31:43;;;;;;;6.53;5.07;;;14.00;99.90;;;;;;4961011;28;20280;-74
2023/06/13 09:34:15;;;;;;;6.77;4.90;;;14.00;99.90;;;;;;4974570;28;20786;-76
2023/06/13 09:36:43;;;;;;;6.00;4.80;;;13.90;99.90;;;;;;4974802;28;20285;-75
2023/06/13 09:39:10;;;;;;;5.97;5.23;;;13.90;99.90;;;;;;5026498;28;20213;-75
2023/06/13 09:41:37;;;;;;;7.10;4.97;;;14.00;99.90;;;;;;5054399;28;20317;-76
2023/06/13 09:44:06;;;;;;;9.13;5.33;;;14.00;99.90;;;;;;5054466;28;20225;-74
2023/06/13 09:46:36;;;;;;;7.20;5.23;;;14.10;99.90;;;;;;5054332;28;20634;-75
2023/06/13 09:49:03;;;;;;;6.47;5.33;;;14.20;99.90;;;;;;5054507;28;20193;-75
2023/06/13 09:51:32;;;;;;;7.80;5.33;;;14.20;99.90;;;;;;5036906;28;20726;-77
2023/06/13 09:54:00;;;;;;;7.83;5.20;;;14.30;99.90;;;;;;5054312;28;20281;-77
2023/06/13 09:56:27;;;;;;;7.27;5.30;;;14.30;99.90;;;;;;5037068;28;20275;-75
2023/06/13 09:58:54;;;;;;;6.30;5.33;;;14.40;99.90;;;;;;5077207;28;20278;-75
2023/06/13 10:01:21;;;;;;;6.80;5.33;;;14.50;99.90;;;;;;5090287;28;20213;-75
2023/06/13 10:03:49;;;;;;;7.27;5.80;;;14.60;99.90;;;;;;5090660;28;20208;-76
2023/06/13 10:06:16;;;;;;;6.77;5.60;;;14.70;99.90;;;;;;5091786;28;20681;-75
2023/06/13 10:08:43;;;;;;;6.70;5.27;;;14.70;99.90;;;;;;5091001;28;20193;-76
2023/06/13 10:11:16;;;;;;;8.57;5.57;;;14.60;99.90;;;;;;5074105;28;20217;-76
2023/06/13 10:13:56;;;;;;;7.33;5.60;;;14.70;99.90;;;;;;5090916;28;20233;-76
2023/06/13 10:16:24;;;;;;;7.13;5.20;;;14.70;99.90;;;;;;5090595;28;20223;-75
2023/06/13 10:18:53;;;;;;;7.80;5.20;;;14.70;99.90;;;;;;5091024;28;20616;-77
2023/06/13 10:21:22;;;;;;;6.37;5.10;;;14.70;99.90;;;;;;5091222;28;20220;-75
2023/06/13 10:23:50;;;;;;;9.73;5.50;;;14.70;99.90;;;;;;5091104;28;20193;-76
2023/06/13 10:26:32;;;;;;;6.77;5.33;;;14.80;99.90;;;;;;5090650;28;20677;-76
2023/06/13 10:29:14;;;;;;;7.13;5.37;;;15.00;99.90;;;;;;5091293;28;20618;-77
2023/06/13 10:31:54;;;;;;;7.10;5.03;;;15.20;99.90;;;;;;5090934;28;20259;-77
2023/06/13 10:34:28;;;;;;;7.07;5.10;;;15.40;99.90;;;;;;5090634;28;20648;-76
2023/06/13 10:37:38;;;;;;;6.73;5.00;;;15.40;99.90;;;;;;5093758;28;20289;-76
2023/06/13 10:40:15;;;;;;;7.17;5.30;;;15.40;99.90;;;;;;5096273;28;20221;-76
2023/06/13 10:42:59;;;;;;;6.07;5.23;;;15.40;99.90;;;;;;5096064;28;20551;-76
2023/06/13 10:45:28;;;;;;;6.10;5.50;;;15.30;99.90;;;;;;5096059;28;20217;-77
2023/06/13 10:47:58;;;;;;;8.07;5.83;;;15.30;99.90;;;;;;5094646;28;20189;-76
2023/06/13 10:50:25;;;;;;;7.53;5.37;;;15.20;99.90;;;;;;5077862;28;20257;-76
2023/06/13 10:52:54;;;;;;;7.40;5.43;;;15.10;99.90;;;;;;5094833;28;20254;-76
2023/06/13 10:55:25;;;;;;;6.10;5.10;;;15.10;99.90;;;;;;5094463;28;20221;-75
2023/06/13 10:57:54;;;;;;;7.27;5.70;;;15.20;99.90;;;;;;5077551;28;20649;-75
2023/06/13 11:00:24;;;;;;;6.47;5.00;;;15.20;99.90;;;;;;5095789;28;20213;-75
2023/06/13 11:03:10;;;;;;;6.20;5.20;;;15.30;99.90;;;;;;5094775;28;20212;-76
2023/06/13 11:05:45;;;;;;;6.37;5.40;;;15.50;99.90;;;;;;5077215;28;20822;-75
2023/06/13 11:08:25;;;;;;;6.63;5.47;;;15.70;99.90;;;;;;5094442;28;20195;-76
2023/06/13 11:10:55;;;;;;;7.17;5.70;;;15.80;99.90;;;;;;5094130;28;20235;-75
2023/06/13 11:13:31;;;;;;;6.67;5.47;;;16.10;99.90;;;;;;5094378;28;20240;-76
2023/06/13 11:16:34;;;;;;;6.40;5.70;;;16.30;99.90;;;;;;5077346;28;20260;-76
2023/06/13 11:19:06;;;;;;;7.67;6.10;;;16.40;99.90;;;;;;5095097;28;20197;-76
2023/06/13 11:21:43;;;;;;;7.27;5.40;;;16.40;99.90;;;;;;5077073;28;20217;-76
2023/06/13 11:24:14;;;;;;;7.67;5.43;;;16.50;99.90;;;;;;5093823;28;20204;-76
2023/06/13 11:26:45;;;;;;;8.43;6.17;;;16.40;99.90;;;;;;5035293;28;20226;-76
2023/06/13 11:29:15;;;;;;;8.03;5.80;;;16.30;99.90;;;;;;5035303;28;20685;-75
2023/06/13 11:31:42;;;;;;;7.50;5.70;;;16.20;99.90;;;;;;5035391;28;20191;-75
2023/06/13 11:34:17;;;;;;;7.40;5.83;;;16.10;99.90;;;;;;5018795;28;20626;-76
2023/06/13 11:36:46;;;;;;;6.50;5.33;;;15.90;99.90;;;;;;5035622;28;20218;-76
2023/06/13 11:39:22;;;;;;;6.60;5.70;;;15.90;99.90;;;;;;5051909;28;20302;-76
2023/06/13 11:41:50;;;;;;;7.43;6.00;;;15.80;99.90;;;;;;5035597;28;20763;-76
2023/06/13 11:44:18;;;;;;;7.20;6.10;;;15.70;99.90;;;;;;5062693;28;20588;-75
2023/06/13 11:46:46;;;;;;;6.97;5.57;;;15.70;99.90;;;;;;5076832;28;20765;-77
2023/06/13 11:49:14;;;;;;;7.43;6.27;;;15.60;99.90;;;;;;5092813;28;20284;-76
2023/06/13 11:51:43;;;;;;;7.27;6.40;;;15.70;99.90;;;;;;5093182;28;20225;-76
2023/06/13 11:54:11;;;;;;;7.90;6.47;;;15.70;99.90;;;;;;5093339;28;20216;-77
2023/06/13 11:56:51;;;;;;;8.20;6.17;;;15.70;99.90;;;;;;5093461;28;20658;-76
2023/06/13 11:59:23;;;;;;;8.13;6.37;;;15.80;99.90;;;;;;5093420;28;20316;-76
2023/06/13 12:01:54;;;;;;;8.80;6.27;;;15.90;99.90;;;;;;5093432;28;20204;-76
2023/06/13 12:04:26;;;;;;;6.30;5.40;;;16.10;99.90;;;;;;5093094;28;20665;-75
2023/06/13 12:06:53;;;;;;;7.70;6.17;;;16.30;99.90;;;;;;5076384;28;20228;-75
2023/06/13 12:09:21;;;;;;;8.67;6.07;;;16.50;99.90;;;;;;5092682;28;20201;-76
2023/06/13 12:11:50;;;;;;;8.13;5.97;;;16.70;99.90;;;;;;5092297;28;20206;-76
2023/06/13 12:14:20;;;;;;;8.03;5.50;;;17.00;99.90;;;;;;5092472;28;20194;-77
2023/06/13 12:16:52;;;;;;;8.70;6.10;;;17.20;99.90;;;;;;5092747;28;20233;-77
2023/06/13 12:19:21;;;;;;;7.43;5.53;;;17.40;99.90;;;;;;5093024;28;20247;-76
2023/06/13 12:21:56;;;;;;;6.33;5.73;;;17.50;99.90;;;;;;5092697;28;20740;-76
2023/06/13 12:24:25;;;;;;;6.90;5.07;;;17.90;99.90;;;;;;5075916;28;20192;-77
2023/06/13 12:26:53;;;;;;;6.97;5.40;;;18.40;99.90;;;;;;5092738;28;20222;-76
2023/06/13 12:29:25;;;;;;;6.83;5.63;;;18.80;99.90;;;;;;5075943;28;20197;-76
2023/06/13 12:31:59;;;;;;;6.80;5.23;;;18.80;99.90;;;;;;5075913;28;20206;-76
2023/06/13 12:34:31;;;;;;;7.83;5.60;;;18.80;99.90;;;;;;5093861;28;20199;-76
2023/06/13 12:36:59;;;;;;;8.90;4.93;;;18.90;99.90;;;;;;5030855;28;20206;-76
2023/06/13 12:39:30;;;;;;;8.70;6.23;;;19.10;99.90;;;;;;4998508;28;20675;-76
2023/06/13 12:42:02;;;;;;;6.63;5.33;;;19.10;99.90;;;;;;4998322;28;20295;-75
2023/06/13 12:44:34;;;;;;;6.97;5.10;;;18.90;99.90;;;;;;5014453;28;20261;-75
2023/06/13 12:47:03;;;;;;;7.03;5.47;;;19.10;99.90;;;;;;5030740;28;20222;-76
2023/06/13 12:49:38;;;;;;;6.93;5.00;;;19.20;99.90;;;;;;5014357;28;20212;-76
2023/06/13 12:52:17;;;;;;;6.33;5.20;;;19.50;99.90;;;;;;5031165;28;20199;-76
2023/06/13 12:54:44;;;;;;;6.10;5.47;;;19.60;99.90;;;;;;5038516;28;20217;-75
2023/06/13 12:57:15;;;;;;;7.30;5.53;;;19.70;99.90;;;;;;5093606;28;20189;-75
2023/06/13 12:59:47;;;;;;;6.47;5.47;;;19.50;99.90;;;;;;5090706;28;20692;-75